Time;durP1;ratioP1;P1;durP2;ratioP2;P2;SDS_P1;SDS_P2;PMS_P1;PMS_P2;Temp;Humidity;BMP_temperature;BMP_pressure;BME280_temperature;BME280_humidity;BME280_pressure;Samples;Min_cycle;Max_cycle;Signal;HPM_P1;HPM_P2
2022/12/06 00:00:40;;;;;;;11.80;8.80;;;4.20;35.90;;;;;;7361522;19;20466;-74
2022/12/06 00:03:10;;;;;;;16.52;9.95;;;4.20;35.00;;;;;;7371000;19;20006;-74
2022/12/06 00:05:40;;;;;;;19.40;10.32;;;4.20;33.90;;;;;;7371937;19;20091;-73
2022/12/06 00:08:15;;;;;;;12.77;9.25;;;4.20;32.70;;;;;;7370870;19;20010;-73
2022/12/06 00:10:45;;;;;;;14.25;9.38;;;4.20;32.60;;;;;;7383759;19;20604;-75
2022/12/06 00:13:15;;;;;;;11.98;9.02;;;4.30;33.20;;;;;;7369677;19;20027;-74
2022/12/06 00:15:47;;;;;;;14.75;9.38;;;4.20;32.50;;;;;;7370842;19;20026;-74
2022/12/06 00:18:17;;;;;;;11.90;8.30;;;4.20;32.20;;;;;;7370146;19;20458;-73
2022/12/06 00:20:47;;;;;;;14.05;9.82;;;4.20;31.20;;;;;;7364415;19;20085;-74
2022/12/06 00:23:16;;;;;;;11.65;7.97;;;4.20;30.40;;;;;;7369838;19;20010;-75
2022/12/06 00:25:46;;;;;;;12.02;8.10;;;4.20;30.00;;;;;;7391700;19;20017;-72
2022/12/06 00:28:16;;;;;;;10.10;7.72;;;4.30;29.50;;;;;;7367896;19;20015;-73
2022/12/06 00:30:48;;;;;;;12.30;7.68;;;4.20;28.50;;;;;;7359921;19;20529;-72
2022/12/06 00:33:18;;;;;;;11.43;7.15;;;4.20;28.00;;;;;;7368402;19;20537;-72
2022/12/06 00:35:57;;;;;;;8.40;6.50;;;4.20;27.40;;;;;;7367870;19;20014;-74
2022/12/06 00:38:27;;;;;;;9.60;6.88;;;4.10;25.90;;;;;;7364828;19;20021;-74
2022/12/06 00:41:02;;;;;;;12.20;6.55;;;4.10;25.80;;;;;;7385381;19;20014;-73
2022/12/06 00:43:32;;;;;;;8.30;6.03;;;4.10;25.00;;;;;;7369018;19;20015;-73
2022/12/06 00:46:06;;;;;;;9.18;6.85;;;4.00;24.40;;;;;;7368146;19;20612;-74
2022/12/06 00:48:37;;;;;;;10.93;6.63;;;4.00;24.40;;;;;;7363004;19;20358;-73
2022/12/06 00:51:07;;;;;;;13.02;6.93;;;4.00;23.50;;;;;;7364391;19;20014;-74
2022/12/06 00:53:37;;;;;;;10.55;6.40;;;4.00;24.00;;;;;;7367557;19;20017;-74
2022/12/06 00:56:08;;;;;;;10.35;7.20;;;4.00;23.60;;;;;;7369283;19;20488;-73
2022/12/06 00:58:37;;;;;;;10.02;6.43;;;3.90;23.60;;;;;;7384951;19;20020;-73
2022/12/06 01:01:16;;;;;;;11.30;7.57;;;3.90;23.60;;;;;;7364100;19;20013;-74
2022/12/06 01:03:50;;;;;;;10.07;6.78;;;3.90;23.60;;;;;;7367598;19;20010;-74
2022/12/06 01:06:22;;;;;;;10.13;6.40;;;3.90;24.10;;;;;;7368412;19;20014;-74
2022/12/06 01:08:53;;;;;;;8.65;6.40;;;3.80;24.40;;;;;;7362628;19;21271;-74
2022/12/06 01:11:24;;;;;;;11.10;6.65;;;3.80;24.90;;;;;;7363861;19;20943;-75
2022/12/06 01:13:54;;;;;;;10.50;6.60;;;3.80;25.20;;;;;;7390454;19;20011;-73
2022/12/06 01:16:29;;;;;;;10.13;7.03;;;3.80;25.60;;;;;;7369226;19;20009;-73
2022/12/06 01:19:01;;;;;;;9.38;6.72;;;3.80;26.80;;;;;;7362230;19;20017;-73
2022/12/06 01:21:32;;;;;;;11.05;7.10;;;3.90;27.50;;;;;;7365123;19;20010;-73
2022/12/06 01:24:01;;;;;;;10.90;7.28;;;3.80;28.10;;;;;;7367693;19;20013;-73
2022/12/06 01:26:33;;;;;;;10.07;7.18;;;3.90;28.00;;;;;;7369529;19;19998;-73
2022/12/06 01:29:04;;;;;;;10.40;7.70;;;3.80;27.90;;;;;;7370164;19;20007;-73
2022/12/06 01:31:36;;;;;;;10.30;7.50;;;3.80;28.40;;;;;;7386176;19;20035;-73
2022/12/06 01:34:08;;;;;;;12.60;8.05;;;3.70;28.40;;;;;;7366513;19;20017;-74
2022/12/06 01:36:38;;;;;;;10.75;7.80;;;3.70;28.90;;;;;;7368646;19;20013;-74
2022/12/06 01:39:09;;;;;;;12.68;8.30;;;3.80;29.60;;;;;;7359396;19;20565;-73
2022/12/06 01:41:40;;;;;;;12.23;7.97;;;3.70;29.70;;;;;;7365963;19;20010;-73
2022/12/06 01:44:44;;;;;;;11.48;8.00;;;3.70;30.00;;;;;;7367738;19;20010;-74
2022/12/06 01:47:20;;;;;;;10.13;7.35;;;3.70;29.00;;;;;;7368657;19;20100;-73
2022/12/06 01:49:55;;;;;;;12.55;7.45;;;3.70;29.00;;;;;;7383017;19;20010;-74
2022/12/06 01:52:28;;;;;;;13.27;9.13;;;3.70;29.50;;;;;;7365848;19;20082;-73
2022/12/06 01:55:00;;;;;;;14.70;9.55;;;3.80;30.40;;;;;;7366582;19;20010;-74
2022/12/06 01:57:32;;;;;;;15.43;10.43;;;3.80;31.60;;;;;;7367482;19;20006;-74
2022/12/06 02:00:02;;;;;;;14.43;9.98;;;3.80;32.80;;;;;;7358372;19;20010;-73
2022/12/06 02:02:35;;;;;;;15.82;10.85;;;3.80;32.80;;;;;;7366967;19;20013;-75
2022/12/06 02:05:05;;;;;;;16.88;10.38;;;3.90;33.70;;;;;;7365528;19;20521;-73
2022/12/06 02:07:35;;;;;;;15.00;10.50;;;3.90;34.10;;;;;;7388947;19;20529;-73
2022/12/06 02:10:07;;;;;;;16.10;10.40;;;3.80;33.90;;;;;;7356468;19;20007;-73
2022/12/06 02:12:36;;;;;;;13.80;9.07;;;3.80;33.70;;;;;;7365796;19;20010;-73
2022/12/06 02:15:07;;;;;;;15.10;9.27;;;3.80;33.90;;;;;;7365592;19;20015;-73
2022/12/06 02:17:49;;;;;;;13.13;9.45;;;3.80;33.30;;;;;;7366768;19;20351;-74
2022/12/06 02:20:26;;;;;;;14.23;9.18;;;3.80;32.90;;;;;;7356852;19;20066;-73
2022/12/06 02:23:36;;;;;;;14.32;9.05;;;3.90;32.90;;;;;;7388045;19;20007;-73
2022/12/06 02:26:27;;;;;;;13.55;9.30;;;3.90;33.00;;;;;;7263774;19;2004422;-73
2022/12/06 02:29:25;;;;;;;14.95;9.45;;;4.00;33.00;;;;;;7385660;19;20018;-73
2022/12/06 02:32:00;;;;;;;12.45;9.23;;;3.90;33.00;;;;;;7364057;19;20018;-73
2022/12/06 02:34:38;;;;;;;14.52;10.55;;;3.90;33.00;;;;;;7365366;19;20066;-74
2022/12/06 02:37:14;;;;;;;15.48;10.32;;;4.00;33.50;;;;;;7365971;19;20014;-74
2022/12/06 02:39:49;;;;;;;15.50;10.13;;;3.90;33.70;;;;;;7357275;19;20010;-75
2022/12/06 02:42:23;;;;;;;15.55;10.60;;;3.90;34.50;;;;;;7366657;19;20018;-74
2022/12/06 02:44:56;;;;;;;15.63;10.45;;;3.90;34.90;;;;;;7365079;19;20006;-74
2022/12/06 02:47:34;;;;;;;17.20;10.98;;;3.90;35.00;;;;;;7367352;19;20018;-73
2022/12/06 02:50:09;;;;;;;20.15;12.45;;;4.00;35.80;;;;;;7353933;19;20014;-73
2022/12/06 02:52:43;;;;;;;16.70;11.35;;;3.90;36.20;;;;;;7386004;19;20015;-74
2022/12/06 02:55:14;;;;;;;18.13;12.55;;;3.80;36.30;;;;;;7365164;19;20003;-73
2022/12/06 02:57:46;;;;;;;16.20;11.07;;;3.80;37.20;;;;;;7365289;19;20450;-74
2022/12/06 03:00:38;;;;;;;17.23;10.77;;;3.80;38.00;;;;;;7355893;19;20007;-73
2022/12/06 03:03:40;;;;;;;17.65;10.77;;;3.80;39.10;;;;;;7365334;19;20011;-72
2022/12/06 03:06:31;;;;;;;16.58;10.70;;;3.80;39.20;;;;;;7364537;19;20007;-72
2022/12/06 03:09:09;;;;;;;16.50;10.88;;;3.80;39.40;;;;;;7361895;19;20006;-73
2022/12/06 03:11:50;;;;;;;16.67;11.13;;;3.80;39.20;;;;;;7359977;19;20526;-73
2022/12/06 03:14:25;;;;;;;14.40;11.20;;;3.80;39.10;;;;;;7364480;19;20074;-74
2022/12/06 03:17:06;;;;;;;16.75;11.52;;;3.80;39.40;;;;;;7386751;19;20021;-72
2022/12/06 03:19:40;;;;;;;16.80;11.32;;;3.90;39.80;;;;;;7356569;19;20576;-73
2022/12/06 03:22:13;;;;;;;;;;;3.90;39.50;;;;;;7364872;19;20077;-73
2022/12/06 03:24:44;;;;;;;15.38;11.18;;;3.90;38.80;;;;;;7364771;19;20319;-73
2022/12/06 03:27:18;;;;;;;17.02;11.38;;;3.90;39.30;;;;;;7365514;19;20030;-73
2022/12/06 03:29:53;;;;;;;16.40;11.05;;;3.90;38.90;;;;;;7355914;19;20025;-73
2022/12/06 03:32:26;;;;;;;16.67;11.52;;;3.90;39.20;;;;;;7364461;19;19996;-73
2022/12/06 03:35:06;;;;;;;17.15;11.23;;;3.90;39.30;;;;;;7385899;19;20013;-74
2022/12/06 03:37:39;;;;;;;19.13;11.98;;;3.90;39.30;;;;;;7364400;19;20025;-73
2022/12/06 03:40:15;;;;;;;16.90;11.20;;;4.00;39.40;;;;;;7353594;19;20010;-73
2022/12/06 03:42:46;;;;;;;16.90;10.57;;;4.00;38.20;;;;;;7364290;19;20003;-72
2022/12/06 03:45:16;;;;;;;18.83;11.20;;;3.90;37.30;;;;;;7363200;19;20482;-73
2022/12/06 03:47:52;;;;;;;14.77;11.07;;;3.90;38.30;;;;;;7364825;19;20006;-73
2022/12/06 03:50:31;;;;;;;17.52;10.98;;;3.90;38.40;;;;;;7354426;19;20023;-73
2022/12/06 03:53:02;;;;;;;14.65;10.45;;;3.90;38.80;;;;;;7384524;19;20023;-73
2022/12/06 03:55:32;;;;;;;17.75;12.05;;;4.00;38.70;;;;;;7363523;19;20018;-74
2022/12/06 03:58:02;;;;;;;18.35;11.45;;;4.00;38.50;;;;;;7362312;19;20101;-74
2022/12/06 04:00:32;;;;;;;17.25;11.73;;;4.00;38.40;;;;;;7355668;19;20011;-73
2022/12/06 04:03:01;;;;;;;17.45;12.07;;;4.00;38.60;;;;;;7371263;19;20014;-74
2022/12/06 04:05:34;;;;;;;18.83;12.23;;;4.00;38.60;;;;;;7371497;19;20018;-74
2022/12/06 04:08:04;;;;;;;18.88;11.88;;;4.00;38.30;;;;;;7371197;19;20417;-74
2022/12/06 04:10:34;;;;;;;21.63;12.38;;;4.00;38.70;;;;;;7384238;19;20026;-74
2022/12/06 04:13:04;;;;;;;19.83;11.52;;;4.00;38.50;;;;;;7367610;19;19998;-74
2022/12/06 04:15:37;;;;;;;17.13;12.15;;;4.00;38.30;;;;;;7370913;19;20422;-74
2022/12/06 04:18:14;;;;;;;15.95;11.40;;;4.00;37.40;;;;;;7370883;19;20024;-74
2022/12/06 04:23:33;;;;;;;15.02;10.43;;;4.00;36.30;;;;;;7370881;19;20042;-74
2022/12/06 04:26:03;;;;;;;15.70;10.60;;;4.00;35.50;;;;;;7380434;19;20484;-75
2022/12/06 04:39:27;;;;;;;17.65;11.10;;;4.10;33.70;;;;;;7363065;19;20015;-74
2022/12/06 04:44:39;;;;;;;14.77;10.07;;;4.10;33.20;;;;;;7369740;19;20006;-74
2022/12/06 04:47:10;;;;;;;16.67;11.02;;;4.10;33.10;;;;;;7369871;19;20003;-73
2022/12/06 04:49:40;;;;;;;18.27;10.95;;;4.10;33.10;;;;;;7381026;19;20015;-74
2022/12/06 04:52:13;;;;;;;15.27;10.45;;;4.10;33.20;;;;;;7366818;19;20030;-73
2022/12/06 04:54:43;;;;;;;14.95;9.63;;;4.00;33.00;;;;;;7369117;19;20086;-74
2022/12/06 04:57:15;;;;;;;14.52;9.80;;;4.10;32.70;;;;;;7369775;19;20014;-74
2022/12/06 04:59:49;;;;;;;14.50;9.88;;;4.10;33.00;;;;;;7359735;19;20011;-74
2022/12/06 05:02:18;;;;;;;17.63;10.90;;;4.20;33.20;;;;;;7369369;19;20033;-74
2022/12/06 05:04:48;;;;;;;14.35;9.60;;;4.20;33.10;;;;;;7390161;19;20040;-74
2022/12/06 05:07:21;;;;;;;15.68;10.27;;;4.20;33.30;;;;;;7369656;19;20010;-74
2022/12/06 05:09:51;;;;;;;16.63;10.90;;;4.10;33.30;;;;;;7358215;19;20011;-73
2022/12/06 05:12:21;;;;;;;15.65;10.85;;;4.10;33.90;;;;;;7364692;19;20478;-72
2022/12/06 05:14:51;;;;;;;17.83;11.82;;;4.10;34.40;;;;;;7368077;19;20027;-73
2022/12/06 05:17:20;;;;;;;14.65;10.43;;;4.10;34.40;;;;;;7368927;19;20015;-73
2022/12/06 05:19:50;;;;;;;16.90;10.88;;;4.10;33.20;;;;;;7379610;19;20431;-73
2022/12/06 05:22:23;;;;;;;19.27;12.75;;;4.10;33.10;;;;;;7367030;19;20581;-73
2022/12/06 05:24:52;;;;;;;18.80;12.20;;;4.20;32.90;;;;;;7368061;19;20094;-74
2022/12/06 05:27:22;;;;;;;19.40;11.48;;;4.20;32.10;;;;;;7368887;19;20014;-73
2022/12/06 05:29:52;;;;;;;17.55;11.20;;;4.20;32.00;;;;;;7359280;19;20014;-73
2022/12/06 05:32:22;;;;;;;13.90;9.73;;;4.20;32.00;;;;;;7366510;19;20460;-74
2022/12/06 05:34:52;;;;;;;18.10;10.90;;;4.20;31.70;;;;;;7388651;19;20479;-71
2022/12/06 05:37:24;;;;;;;15.45;10.65;;;4.20;31.80;;;;;;7367625;19;20013;-73
2022/12/06 05:39:54;;;;;;;12.95;9.05;;;4.20;31.10;;;;;;7357184;19;21674;-74
2022/12/06 05:42:24;;;;;;;13.50;8.85;;;4.20;30.90;;;;;;7367372;19;20017;-74
2022/12/06 05:44:54;;;;;;;12.35;8.68;;;4.20;30.60;;;;;;7367705;19;20011;-73
2022/12/06 05:47:24;;;;;;;12.68;8.88;;;4.20;30.00;;;;;;7367910;19;20468;-73
2022/12/06 05:49:53;;;;;;;17.58;8.57;;;4.20;29.50;;;;;;7378444;19;20042;-73
2022/12/06 05:52:26;;;;;;;14.35;9.18;;;4.20;29.00;;;;;;7366020;19;20454;-73
2022/12/06 05:54:56;;;;;;;14.55;8.63;;;4.20;29.00;;;;;;7366382;19;20011;-74
2022/12/06 05:57:25;;;;;;;15.27;9.70;;;4.20;28.10;;;;;;7367983;19;20034;-73
2022/12/06 05:59:55;;;;;;;12.77;8.48;;;4.20;27.30;;;;;;7355924;19;20025;-74
2022/12/06 06:02:25;;;;;;;12.02;8.85;;;4.20;27.20;;;;;;7367104;19;20093;-74
2022/12/06 06:04:55;;;;;;;14.48;9.20;;;4.20;26.60;;;;;;7387828;19;20364;-74
2022/12/06 06:07:28;;;;;;;21.15;13.02;;;4.20;26.80;;;;;;7367971;19;19998;-73
2022/12/06 06:09:58;;;;;;;13.15;8.73;;;4.20;26.90;;;;;;7355506;19;20013;-72
2022/12/06 06:12:28;;;;;;;13.90;8.85;;;4.10;25.80;;;;;;7365622;19;20022;-73
2022/12/06 06:14:58;;;;;;;14.07;9.30;;;4.10;25.80;;;;;;7365793;19;20017;-73
2022/12/06 06:17:28;;;;;;;12.93;8.20;;;4.20;25.90;;;;;;7368296;19;20010;-74
2022/12/06 06:19:58;;;;;;;11.05;7.70;;;4.20;26.00;;;;;;7378039;19;20027;-73
2022/12/06 06:22:30;;;;;;;11.55;7.78;;;4.10;25.80;;;;;;7366330;19;20040;-73
2022/12/06 06:25:00;;;;;;;56.78;32.92;;;4.20;26.40;;;;;;7364617;19;20339;-74
2022/12/06 06:27:35;;;;;;;18.92;12.43;;;4.20;26.30;;;;;;7364871;19;20390;-74
2022/12/06 06:30:07;;;;;;;10.52;7.85;;;4.20;25.90;;;;;;7356774;19;20006;-73
2022/12/06 06:32:37;;;;;;;11.50;7.75;;;4.30;26.70;;;;;;7365379;19;20090;-74
2022/12/06 06:35:08;;;;;;;11.30;7.93;;;4.20;26.50;;;;;;7363185;19;20010;-74
2022/12/06 06:37:40;;;;;;;11.82;8.52;;;4.30;28.10;;;;;;7387479;19;20086;-74
2022/12/06 06:40:11;;;;;;;11.73;8.05;;;4.20;27.70;;;;;;7353379;19;20033;-74
2022/12/06 06:42:40;;;;;;;14.82;8.82;;;4.20;27.40;;;;;;7363223;19;20493;-73
2022/12/06 06:45:11;;;;;;;9.13;7.15;;;4.30;26.90;;;;;;7363474;19;20011;-73
2022/12/06 06:47:41;;;;;;;11.65;8.15;;;4.30;26.00;;;;;;7364576;19;20017;-74
2022/12/06 06:50:12;;;;;;;11.70;8.13;;;4.30;26.00;;;;;;7355732;19;20014;-73
2022/12/06 06:52:44;;;;;;;12.50;8.52;;;4.30;25.20;;;;;;7386200;19;20014;-73
2022/12/06 06:55:19;;;;;;;11.68;7.78;;;4.30;25.10;;;;;;7364024;19;20025;-73
2022/12/06 06:57:49;;;;;;;10.45;7.68;;;4.30;25.10;;;;;;7365448;19;20009;-74
2022/12/06 07:00:20;;;;;;;10.25;7.78;;;4.40;25.60;;;;;;7354429;19;20532;-74
2022/12/06 07:02:50;;;;;;;10.88;7.15;;;4.40;25.30;;;;;;7363253;19;20011;-74
2022/12/06 07:05:20;;;;;;;11.43;7.82;;;4.40;25.70;;;;;;7364784;19;20034;-74
2022/12/06 07:07:52;;;;;;;11.27;8.52;;;4.40;26.00;;;;;;7386322;19;20466;-72
2022/12/06 07:10:24;;;;;;;12.48;8.07;;;4.40;25.20;;;;;;7353639;19;20006;-74
2022/12/06 07:12:54;;;;;;;11.00;7.22;;;4.40;25.00;;;;;;7363397;19;20085;-75
2022/12/06 07:15:24;;;;;;;10.10;7.07;;;4.40;24.20;;;;;;7363225;19;20521;-74
2022/12/06 07:17:53;;;;;;;9.90;7.50;;;4.40;23.50;;;;;;7363258;19;20010;-73
2022/12/06 07:20:23;;;;;;;14.95;7.57;;;4.40;23.30;;;;;;7354063;19;20003;-73
2022/12/06 07:22:57;;;;;;;9.70;6.45;;;4.40;21.90;;;;;;7384565;19;20010;-75
2022/12/06 07:25:27;;;;;;;9.88;6.78;;;4.40;20.90;;;;;;7363804;19;20033;-75
2022/12/06 07:27:56;;;;;;;11.45;7.05;;;4.40;20.70;;;;;;7364297;19;20014;-74
2022/12/06 07:30:26;;;;;;;10.27;6.60;;;4.40;20.30;;;;;;7355305;19;20018;-74
2022/12/06 07:32:57;;;;;;;12.68;8.27;;;4.40;21.80;;;;;;7363362;19;20103;-73
2022/12/06 07:35:27;;;;;;;8.80;6.65;;;4.40;22.20;;;;;;7362078;19;20014;-75
2022/12/06 07:38:20;;;;;;;17.05;12.07;;;4.40;20.50;;;;;;7369689;19;20003;-74
2022/12/06 07:40:50;;;;;;;12.50;8.15;;;4.40;21.10;;;;;;7385154;19;20457;-72
2022/12/06 07:46:17;;;;;;;9.82;6.38;;;4.30;22.30;;;;;;7371995;19;20002;-74
2022/12/06 07:48:47;;;;;;;11.75;6.88;;;4.20;21.90;;;;;;7364650;19;20011;-74
2022/12/06 07:51:18;;;;;;;10.65;7.13;;;4.20;22.70;;;;;;7364308;19;20517;-74
2022/12/06 07:53:50;;;;;;;11.18;7.35;;;4.30;24.00;;;;;;7370178;19;20373;-74
2022/12/06 07:56:20;;;;;;;10.95;7.18;;;4.20;24.30;;;;;;7370429;19;20006;-73
2022/12/06 07:58:50;;;;;;;11.95;7.82;;;4.20;25.90;;;;;;7387440;19;20026;-73
2022/12/06 08:01:22;;;;;;;10.88;7.97;;;4.20;25.90;;;;;;7365024;19;20006;-74
2022/12/06 08:03:54;;;;;;;16.13;8.73;;;4.20;26.00;;;;;;7368064;19;20033;-73
2022/12/06 08:06:24;;;;;;;14.48;9.20;;;4.20;26.90;;;;;;7371418;19;20007;-74
2022/12/06 08:08:57;;;;;;;14.77;9.20;;;4.10;27.50;;;;;;7364544;19;20010;-74
2022/12/06 08:11:27;;;;;;;12.82;8.60;;;4.10;28.80;;;;;;7363680;19;20017;-74
2022/12/06 08:13:57;;;;;;;12.52;8.15;;;4.10;28.80;;;;;;7391442;19;20085;-76
2022/12/06 08:16:27;;;;;;;10.98;8.07;;;4.10;28.40;;;;;;7370572;19;20046;-74
2022/12/06 08:18:57;;;;;;;12.02;8.57;;;4.00;29.50;;;;;;7366083;19;20010;-75
2022/12/06 08:21:27;;;;;;;10.75;8.25;;;4.10;29.90;;;;;;7363837;19;20014;-74
2022/12/06 08:23:59;;;;;;;14.93;8.73;;;4.10;30.70;;;;;;7369050;19;20014;-75
2022/12/06 08:26:29;;;;;;;11.43;8.60;;;4.20;30.70;;;;;;7370855;19;20755;-75
2022/12/06 08:29:01;;;;;;;17.77;10.63;;;4.20;29.80;;;;;;7387640;19;20006;-74
2022/12/06 08:31:33;;;;;;;13.45;8.77;;;4.10;28.50;;;;;;7362688;19;20075;-73
2022/12/06 08:34:03;;;;;;;12.57;9.20;;;4.10;29.20;;;;;;7367205;19;20006;-75
2022/12/06 08:36:33;;;;;;;13.43;9.10;;;4.30;29.70;;;;;;7367424;19;20028;-74
2022/12/06 08:39:07;;;;;;;13.00;9.35;;;4.30;29.50;;;;;;7363938;19;19999;-74
2022/12/06 08:44:21;;;;;;;16.20;10.98;;;4.40;29.20;;;;;;7367917;19;20106;-74
2022/12/06 08:46:51;;;;;;;14.70;9.90;;;4.30;27.10;;;;;;7389202;19;20085;-73
2022/12/06 08:49:21;;;;;;;18.98;11.02;;;4.20;26.70;;;;;;7360817;19;20007;-74
2022/12/06 08:51:51;;;;;;;16.58;10.88;;;4.30;27.30;;;;;;7363490;19;20089;-74
2022/12/06 08:54:25;;;;;;;16.65;11.05;;;4.30;27.70;;;;;;7366107;19;20025;-73
2022/12/06 08:56:56;;;;;;;17.40;11.00;;;4.30;26.70;;;;;;7368321;19;20399;-73
2022/12/06 08:59:25;;;;;;;16.25;11.48;;;4.30;27.50;;;;;;7362884;19;20541;-73
2022/12/06 09:01:55;;;;;;;21.40;12.10;;;4.30;26.50;;;;;;7385501;19;20405;-73
2022/12/06 09:04:26;;;;;;;19.13;12.07;;;4.20;27.90;;;;;;7367769;19;20014;-73
2022/12/06 09:06:56;;;;;;;19.13;12.50;;;4.30;28.20;;;;;;7366205;19;20034;-74
2022/12/06 09:09:29;;;;;;;21.42;12.43;;;4.30;27.90;;;;;;7361322;19;20086;-73
2022/12/06 09:11:59;;;;;;;21.58;12.98;;;4.40;27.70;;;;;;7364847;19;20377;-72
2022/12/06 09:14:28;;;;;;;21.80;13.02;;;4.40;27.40;;;;;;7366871;19;20006;-73
2022/12/06 09:16:58;;;;;;;20.58;13.27;;;4.40;27.30;;;;;;7389907;19;20017;-73
2022/12/06 09:19:28;;;;;;;19.75;12.68;;;4.30;27.20;;;;;;7361379;19;20017;-74
2022/12/06 09:21:58;;;;;;;23.40;14.02;;;4.30;27.90;;;;;;7366088;19;20335;-73
2022/12/06 09:24:30;;;;;;;25.50;14.27;;;4.40;28.10;;;;;;7366558;19;20045;-73
2022/12/06 09:27:00;;;;;;;24.33;14.68;;;4.30;28.80;;;;;;7366384;19;20090;-73
2022/12/06 09:29:30;;;;;;;25.40;13.63;;;4.30;30.40;;;;;;7360482;19;20015;-73
2022/12/06 09:32:07;;;;;;;24.88;13.85;;;4.30;31.20;;;;;;7366456;19;20014;-74
2022/12/06 09:34:37;;;;;;;25.67;14.52;;;4.20;30.90;;;;;;7384360;19;20016;-73
2022/12/06 09:37:11;;;;;;;24.05;14.48;;;4.30;31.80;;;;;;7364771;19;20006;-73
2022/12/06 09:39:46;;;;;;;27.10;15.57;;;4.30;30.80;;;;;;7356228;19;20090;-73
2022/12/06 09:42:27;;;;;;;;;;;4.30;29.30;;;;;;7366752;19;20537;-73
2022/12/06 09:45:11;;;;;;;21.52;13.20;;;4.40;29.40;;;;;;7363880;19;19935;-73
2022/12/06 09:47:57;;;;;;;24.33;12.27;;;4.40;29.20;;;;;;7367462;19;20070;-72
2022/12/06 09:50:37;;;;;;;21.67;12.40;;;4.30;30.20;;;;;;7355772;19;20018;-73
2022/12/06 09:53:18;;;;;;;18.45;11.30;;;4.40;30.40;;;;;;7364012;19;20038;-73
2022/12/06 09:56:03;;;;;;;18.05;11.25;;;4.30;29.50;;;;;;7386605;19;20166;-73
2022/12/06 09:58:49;;;;;;;21.35;11.95;;;4.30;31.00;;;;;;7360282;19;20034;-73
2022/12/06 10:01:31;;;;;;;19.23;11.48;;;4.30;31.40;;;;;;7359740;19;20003;-73
2022/12/06 10:04:17;;;;;;;17.73;11.50;;;4.40;33.30;;;;;;7364832;19;20031;-73
2022/12/06 10:06:57;;;;;;;20.85;11.57;;;4.40;32.80;;;;;;7366108;19;20014;-74
2022/12/06 10:09:36;;;;;;;19.48;12.00;;;4.40;33.40;;;;;;7357466;19;20019;-74
2022/12/06 10:12:25;;;;;;;18.40;10.98;;;4.30;33.30;;;;;;7364313;19;20128;-73
2022/12/06 10:15:10;;;;;;;20.67;11.88;;;4.20;33.20;;;;;;7363209;19;20557;-73
2022/12/06 10:17:50;;;;;;;18.73;10.70;;;4.20;36.00;;;;;;7365712;19;20073;-73
2022/12/06 10:20:31;;;;;;;20.77;11.80;;;4.20;37.00;;;;;;7353144;19;20129;-72
2022/12/06 10:23:12;;;;;;;18.90;11.93;;;4.10;37.30;;;;;;7385919;19;20024;-73
2022/12/06 10:25:43;;;;;;;17.25;11.50;;;4.20;38.20;;;;;;7364787;19;20014;-73
2022/12/06 10:28:28;;;;;;;20.88;11.23;;;4.20;37.40;;;;;;7364046;19;20118;-73
2022/12/06 10:31:03;;;;;;;18.55;10.73;;;4.20;37.40;;;;;;7358869;19;20018;-74
2022/12/06 10:33:45;;;;;;;20.20;11.60;;;4.20;37.80;;;;;;7363053;19;20014;-74
2022/12/06 10:36:22;;;;;;;18.38;11.75;;;4.10;38.70;;;;;;7364938;19;20042;-75
2022/12/06 10:38:57;;;;;;;17.10;10.45;;;4.20;39.90;;;;;;7360264;19;20074;-72
2022/12/06 10:41:31;;;;;;;14.35;9.93;;;4.00;41.60;;;;;;7360896;19;20592;-74
2022/12/06 10:44:11;;;;;;;19.60;11.05;;;4.00;41.40;;;;;;7387316;19;20147;-75
2022/12/06 10:49:37;;;;;;;13.90;9.50;;;4.00;42.40;;;;;;7357843;19;20010;-74
2022/12/06 10:52:21;;;;;;;13.88;8.32;;;4.00;43.80;;;;;;7362885;19;20006;-75
2022/12/06 10:54:59;;;;;;;13.77;8.95;;;3.90;43.30;;;;;;7360998;19;20364;-72
2022/12/06 10:57:35;;;;;;;13.57;8.80;;;3.90;43.50;;;;;;7364767;19;20007;-73
2022/12/06 11:00:15;;;;;;;11.00;7.07;;;4.00;43.70;;;;;;7352240;19;20007;-74
2022/12/06 11:02:52;;;;;;;14.43;8.07;;;3.90;43.90;;;;;;7364009;19;20007;-74
2022/12/06 11:05:27;;;;;;;17.77;7.60;;;3.90;43.90;;;;;;7364312;19;21045;-74
2022/12/06 11:08:04;;;;;;;13.13;8.00;;;3.80;43.60;;;;;;7384030;19;20014;-73
2022/12/06 11:10:36;;;;;;;14.10;7.32;;;4.00;44.70;;;;;;7355149;19;20496;-73
2022/12/06 11:13:18;;;;;;;12.10;7.07;;;3.80;44.80;;;;;;7369335;19;20054;-73
2022/12/06 11:15:57;;;;;;;12.05;7.40;;;3.80;43.90;;;;;;7370313;19;20622;-73
2022/12/06 11:18:30;;;;;;;12.48;8.15;;;3.90;45.40;;;;;;7367346;19;20384;-72
2022/12/06 11:21:04;;;;;;;14.25;7.45;;;3.90;45.50;;;;;;7367297;19;20066;-73
2022/12/06 11:23:40;;;;;;;13.80;8.15;;;4.00;45.50;;;;;;7369567;19;20057;-75
2022/12/06 11:26:21;;;;;;;11.55;7.45;;;4.00;46.00;;;;;;7369779;19;20033;-73
2022/12/06 11:29:03;;;;;;;12.07;7.65;;;4.00;45.80;;;;;;7387305;19;20366;-73
2022/12/06 11:31:39;;;;;;;13.18;7.43;;;3.90;45.40;;;;;;7365741;19;20010;-74
2022/12/06 11:34:16;;;;;;;13.98;8.50;;;3.90;45.40;;;;;;7369071;19;20502;-73
2022/12/06 11:36:48;;;;;;;11.63;7.60;;;3.90;45.90;;;;;;7369984;19;20010;-73
2022/12/06 11:39:18;;;;;;;10.65;7.30;;;3.90;48.10;;;;;;7365062;19;20017;-74
2022/12/06 11:41:52;;;;;;;11.60;7.50;;;3.90;47.40;;;;;;7367799;19;20011;-73
2022/12/06 11:44:28;;;;;;;12.43;8.60;;;3.80;45.90;;;;;;7370437;19;20052;-74
2022/12/06 11:47:03;;;;;;;12.02;8.10;;;4.00;47.50;;;;;;7392028;19;20074;-73
2022/12/06 11:49:36;;;;;;;11.13;7.57;;;3.90;45.40;;;;;;7359478;19;20014;-74
2022/12/06 11:52:10;;;;;;;9.40;7.05;;;3.90;44.40;;;;;;7368481;19;20015;-73
2022/12/06 11:54:44;;;;;;;10.25;6.53;;;3.80;40.00;;;;;;7368731;19;20021;-73
2022/12/06 11:57:19;;;;;;;9.18;5.95;;;3.90;38.70;;;;;;7368040;19;20688;-74
2022/12/06 12:00:17;;;;;;;7.28;5.68;;;3.90;37.10;;;;;;7358689;19;21570;-73
2022/12/06 12:02:51;;;;;;;9.10;6.55;;;4.00;36.50;;;;;;7368520;19;20434;-73
2022/12/06 12:05:22;;;;;;;;;;;4.00;35.30;;;;;;7368570;19;20026;-74
2022/12/06 12:07:57;;;;;;;8.43;6.05;;;4.00;33.30;;;;;;7390925;19;19922;-72
2022/12/06 12:10:37;;;;;;;8.77;6.32;;;3.90;33.00;;;;;;7356369;19;20010;-73
2022/12/06 12:16:12;;;;;;;11.55;6.28;;;3.90;33.00;;;;;;7367987;19;20102;-74
2022/12/06 12:18:52;;;;;;;9.90;6.78;;;4.00;33.80;;;;;;7363904;19;20044;-73
2022/12/06 12:21:33;;;;;;;9.13;6.32;;;4.00;33.10;;;;;;7360866;19;20020;-73
2022/12/06 12:24:04;;;;;;;8.32;5.80;;;4.10;33.10;;;;;;7367326;19;20018;-73
2022/12/06 12:26:39;;;;;;;7.88;5.65;;;4.00;29.10;;;;;;7368090;19;20094;-73
2022/12/06 12:29:18;;;;;;;8.32;5.30;;;4.20;30.00;;;;;;7364238;19;20018;-73
2022/12/06 12:31:57;;;;;;;6.63;4.45;;;4.30;29.50;;;;;;7387245;19;20011;-75
2022/12/06 12:34:31;;;;;;;7.82;4.60;;;4.10;25.20;;;;;;7369625;19;20470;-73
2022/12/06 12:37:05;;;;;;;5.40;4.20;;;4.20;24.70;;;;;;7367536;19;20081;-75
2022/12/06 12:39:38;;;;;;;6.05;4.05;;;4.20;23.90;;;;;;7359844;19;20029;-71
2022/12/06 12:42:28;;;;;;;5.67;4.40;;;4.10;22.60;;;;;;7366787;19;20480;-74
2022/12/06 12:45:01;;;;;;;7.35;4.50;;;4.10;22.40;;;;;;7367946;19;20474;-74
2022/12/06 12:47:35;;;;;;;7.15;4.35;;;4.10;22.70;;;;;;7369225;19;20118;-74
2022/12/06 12:50:22;;;;;;;10.77;5.15;;;4.10;23.00;;;;;;7354448;19;20022;-74
2022/12/06 12:52:53;;;;;;;7.97;5.47;;;4.20;20.80;;;;;;7390277;19;20007;-74
2022/12/06 12:55:25;;;;;;;11.20;4.38;;;4.20;20.60;;;;;;7364141;19;20022;-74
2022/12/06 12:57:57;;;;;;;7.40;4.70;;;4.20;22.10;;;;;;7361072;19;20090;-73
2022/12/06 13:00:31;;;;;;;6.15;4.07;;;4.30;21.60;;;;;;7358973;19;20014;-74
2022/12/06 13:03:04;;;;;;;8.48;5.00;;;4.20;21.90;;;;;;7363460;19;20588;-73
2022/12/06 13:05:57;;;;;;;10.60;4.80;;;4.20;22.30;;;;;;7367020;19;20135;-73
2022/12/06 13:08:33;;;;;;;6.80;4.80;;;4.10;21.80;;;;;;7364727;19;20010;-74
2022/12/06 13:11:05;;;;;;;6.80;4.55;;;4.00;22.50;;;;;;7377283;19;20468;-75
2022/12/06 13:13:40;;;;;;;6.25;4.38;;;4.00;22.70;;;;;;7388063;19;20028;-74
2022/12/06 13:16:14;;;;;;;8.13;4.57;;;3.90;22.60;;;;;;7365314;19;20343;-75
2022/12/06 13:18:49;;;;;;;7.72;4.68;;;3.90;22.90;;;;;;7358050;19;20092;-74
2022/12/06 13:21:24;;;;;;;7.97;4.93;;;3.90;24.30;;;;;;7362585;19;20011;-73
2022/12/06 13:23:59;;;;;;;9.73;5.55;;;3.90;24.90;;;;;;7361268;19;21285;-73
2022/12/06 13:26:33;;;;;;;8.40;5.97;;;4.00;24.60;;;;;;7367607;19;20006;-72
2022/12/06 13:29:16;;;;;;;7.00;4.72;;;4.00;23.50;;;;;;7376868;19;20015;-72
2022/12/06 13:31:49;;;;;;;7.85;5.55;;;4.00;23.20;;;;;;7386679;19;20014;-72
2022/12/06 13:34:26;;;;;;;9.38;6.10;;;4.00;23.60;;;;;;7363987;19;20002;-74
2022/12/06 13:36:58;;;;;;;5.97;4.55;;;4.10;23.80;;;;;;7365416;19;20033;-73
2022/12/06 13:39:39;;;;;;;9.50;5.75;;;3.90;22.40;;;;;;7358189;19;20010;-73
2022/12/06 13:42:25;;;;;;;13.80;6.45;;;4.00;24.10;;;;;;7365452;19;20021;-72
2022/12/06 13:44:58;;;;;;;8.20;5.57;;;4.00;22.40;;;;;;7364433;19;20010;-72
2022/12/06 13:47:50;;;;;;;8.75;5.63;;;4.10;23.70;;;;;;7366228;19;20010;-72